sensor_id;sensor_type;location;lat;lon;timestamp;temperature;humidity
40077;DHT22;25777;47.824;18.982;2023-11-19T00:00:56;0.50;99.90
40077;DHT22;25777;47.824;18.982;2023-11-19T00:03:22;0.60;99.90
40077;DHT22;25777;47.824;18.982;2023-11-19T00:05:48;0.40;99.90
40077;DHT22;25777;47.824;18.982;2023-11-19T00:08:14;0.10;99.90
40077;DHT22;25777;47.824;18.982;2023-11-19T00:10:40;0.40;99.90
40077;DHT22;25777;47.824;18.982;2023-11-19T00:13:05;0.60;99.90
40077;DHT22;25777;47.824;18.982;2023-11-19T00:15:32;0.40;99.90
40077;DHT22;25777;47.824;18.982;2023-11-19T00:17:58;0.20;99.90
40077;DHT22;25777;47.824;18.982;2023-11-19T00:20:24;0.40;99.90
40077;DHT22;25777;47.824;18.982;2023-11-19T00:22:50;0.60;99.90
40077;DHT22;25777;47.824;18.982;2023-11-19T00:25:20;0.50;99.90
40077;DHT22;25777;47.824;18.982;2023-11-19T00:27:47;0.50;99.90
40077;DHT22;25777;47.824;18.982;2023-11-19T00:30:13;0.60;99.90
40077;DHT22;25777;47.824;18.982;2023-11-19T00:32:40;0.70;99.90
40077;DHT22;25777;47.824;18.982;2023-11-19T00:35:06;0.50;99.90
40077;DHT22;25777;47.824;18.982;2023-11-19T00:37:42;0.40;99.90
40077;DHT22;25777;47.824;18.982;2023-11-19T00:40:15;0.60;99.90
40077;DHT22;25777;47.824;18.982;2023-11-19T00:42:43;0.70;99.90
40077;DHT22;25777;47.824;18.982;2023-11-19T00:45:09;0.80;99.90
40077;DHT22;25777;47.824;18.982;2023-11-19T00:47:36;0.60;99.90
40077;DHT22;25777;47.824;18.982;2023-11-19T00:50:06;0.50;99.90
40077;DHT22;25777;47.824;18.982;2023-11-19T00:52:34;0.60;99.90
40077;DHT22;25777;47.824;18.982;2023-11-19T00:55:01;0.60;99.90
40077;DHT22;25777;47.824;18.982;2023-11-19T00:57:27;0.40;99.90
40077;DHT22;25777;47.824;18.982;2023-11-19T00:59:53;0.50;99.90
40077;DHT22;25777;47.824;18.982;2023-11-19T01:02:18;0.70;99.90
40077;DHT22;25777;47.824;18.982;2023-11-19T01:04:44;0.80;99.90
40077;DHT22;25777;47.824;18.982;2023-11-19T01:07:10;0.70;99.90
40077;DHT22;25777;47.824;18.982;2023-11-19T01:09:38;0.80;99.90
40077;DHT22;25777;47.824;18.982;2023-11-19T01:12:04;0.80;99.90
40077;DHT22;25777;47.824;18.982;2023-11-19T01:14:30;0.90;99.90
40077;DHT22;25777;47.824;18.982;2023-11-19T01:16:56;0.80;99.90
40077;DHT22;25777;47.824;18.982;2023-11-19T01:19:22;0.70;99.90
40077;DHT22;25777;47.824;18.982;2023-11-19T01:21:49;0.80;99.90
40077;DHT22;25777;47.824;18.982;2023-11-19T01:24:15;0.90;99.90
40077;DHT22;25777;47.824;18.982;2023-11-19T01:26:41;0.90;99.90
40077;DHT22;25777;47.824;18.982;2023-11-19T01:29:11;1.00;99.90
40077;DHT22;25777;47.824;18.982;2023-11-19T01:31:41;1.10;99.90
40077;DHT22;25777;47.824;18.982;2023-11-19T01:34:07;1.10;99.90
40077;DHT22;25777;47.824;18.982;2023-11-19T01:36:43;1.10;99.90
40077;DHT22;25777;47.824;18.982;2023-11-19T01:39:08;1.10;99.90
40077;DHT22;25777;47.824;18.982;2023-11-19T01:41:35;1.00;99.90
40077;DHT22;25777;47.824;18.982;2023-11-19T01:44:01;0.90;99.90
40077;DHT22;25777;47.824;18.982;2023-11-19T01:46:27;0.90;99.90
40077;DHT22;25777;47.824;18.982;2023-11-19T01:48:54;0.90;99.90
40077;DHT22;25777;47.824;18.982;2023-11-19T01:51:21;1.00;99.90
40077;DHT22;25777;47.824;18.982;2023-11-19T01:53:49;1.00;99.90
40077;DHT22;25777;47.824;18.982;2023-11-19T01:56:15;0.80;99.90
40077;DHT22;25777;47.824;18.982;2023-11-19T01:58:45;0.50;99.90
40077;DHT22;25777;47.824;18.982;2023-11-19T02:01:11;0.40;99.90
40077;DHT22;25777;47.824;18.982;2023-11-19T02:03:38;0.50;99.90
40077;DHT22;25777;47.824;18.982;2023-11-19T02:06:04;0.60;99.90
40077;DHT22;25777;47.824;18.982;2023-11-19T02:08:30;0.70;99.90
40077;DHT22;25777;47.824;18.982;2023-11-19T02:10:56;0.70;99.90
40077;DHT22;25777;47.824;18.982;2023-11-19T02:13:24;0.40;99.90
40077;DHT22;25777;47.824;18.982;2023-11-19T02:15:50;0.30;99.90
40077;DHT22;25777;47.824;18.982;2023-11-19T02:18:21;0.20;99.90
40077;DHT22;25777;47.824;18.982;2023-11-19T02:20:49;0.30;99.90
40077;DHT22;25777;47.824;18.982;2023-11-19T02:23:15;0.20;99.90
40077;DHT22;25777;47.824;18.982;2023-11-19T02:25:41;0.10;99.90
40077;DHT22;25777;47.824;18.982;2023-11-19T02:28:08;0.30;99.90
40077;DHT22;25777;47.824;18.982;2023-11-19T02:30:38;0.40;99.90
40077;DHT22;25777;47.824;18.982;2023-11-19T02:33:03;0.50;99.90
40077;DHT22;25777;47.824;18.982;2023-11-19T02:35:32;0.50;99.90
40077;DHT22;25777;47.824;18.982;2023-11-19T02:37:58;0.30;99.90
40077;DHT22;25777;47.824;18.982;2023-11-19T02:40:29;0.40;99.90
40077;DHT22;25777;47.824;18.982;2023-11-19T02:42:55;0.50;99.90
40077;DHT22;25777;47.824;18.982;2023-11-19T02:45:25;0.50;99.90
40077;DHT22;25777;47.824;18.982;2023-11-19T02:47:51;0.50;99.90
40077;DHT22;25777;47.824;18.982;2023-11-19T02:50:18;0.40;99.90
40077;DHT22;25777;47.824;18.982;2023-11-19T02:52:54;0.40;99.90
40077;DHT22;25777;47.824;18.982;2023-11-19T02:55:22;0.40;99.90
40077;DHT22;25777;47.824;18.982;2023-11-19T02:57:50;0.40;99.90
40077;DHT22;25777;47.824;18.982;2023-11-19T03:00:17;0.40;99.90
40077;DHT22;25777;47.824;18.982;2023-11-19T03:02:44;0.30;99.90
40077;DHT22;25777;47.824;18.982;2023-11-19T03:05:16;0.20;99.90
40077;DHT22;25777;47.824;18.982;2023-11-19T03:07:42;0.20;99.90
40077;DHT22;25777;47.824;18.982;2023-11-19T03:10:12;0.30;99.90
40077;DHT22;25777;47.824;18.982;2023-11-19T03:12:42;0.20;99.90
40077;DHT22;25777;47.824;18.982;2023-11-19T03:15:08;0.30;99.90
40077;DHT22;25777;47.824;18.982;2023-11-19T03:17:40;0.30;99.90
40077;DHT22;25777;47.824;18.982;2023-11-19T03:20:08;0.20;99.90
40077;DHT22;25777;47.824;18.982;2023-11-19T03:22:42;0.00;99.90
40077;DHT22;25777;47.824;18.982;2023-11-19T03:25:09;-0.10;99.90
40077;DHT22;25777;47.824;18.982;2023-11-19T03:27:38;-0.20;99.90
40077;DHT22;25777;47.824;18.982;2023-11-19T03:30:05;-0.20;99.90
40077;DHT22;25777;47.824;18.982;2023-11-19T03:32:32;0.00;99.90
40077;DHT22;25777;47.824;18.982;2023-11-19T03:34:58;0.10;99.90
40077;DHT22;25777;47.824;18.982;2023-11-19T03:37:26;0.30;99.90
40077;DHT22;25777;47.824;18.982;2023-11-19T03:39:53;0.30;99.90
40077;DHT22;25777;47.824;18.982;2023-11-19T03:42:20;0.30;99.90
40077;DHT22;25777;47.824;18.982;2023-11-19T03:44:47;0.20;99.90
40077;DHT22;25777;47.824;18.982;2023-11-19T03:47:14;0.30;99.90
40077;DHT22;25777;47.824;18.982;2023-11-19T03:49:40;0.30;99.90
40077;DHT22;25777;47.824;18.982;2023-11-19T03:52:06;0.20;99.90
40077;DHT22;25777;47.824;18.982;2023-11-19T03:54:32;0.30;99.90
40077;DHT22;25777;47.824;18.982;2023-11-19T03:56:58;0.30;99.90
40077;DHT22;25777;47.824;18.982;2023-11-19T03:59:31;0.30;99.90
40077;DHT22;25777;47.824;18.982;2023-11-19T04:01:59;0.30;99.90
40077;DHT22;25777;47.824;18.982;2023-11-19T04:04:26;0.30;99.90
40077;DHT22;25777;47.824;18.982;2023-11-19T04:06:53;0.20;99.90
40077;DHT22;25777;47.824;18.982;2023-11-19T04:09:19;0.30;99.90
40077;DHT22;25777;47.824;18.982;2023-11-19T04:11:45;0.20;99.90
40077;DHT22;25777;47.824;18.982;2023-11-19T04:14:13;0.00;99.90
40077;DHT22;25777;47.824;18.982;2023-11-19T04:16:39;0.00;99.90
40077;DHT22;25777;47.824;18.982;2023-11-19T04:19:05;0.10;99.90
40077;DHT22;25777;47.824;18.982;2023-11-19T04:21:32;0.20;99.90
40077;DHT22;25777;47.824;18.982;2023-11-19T04:23:58;0.20;99.90
40077;DHT22;25777;47.824;18.982;2023-11-19T04:26:24;0.30;99.90
40077;DHT22;25777;47.824;18.982;2023-11-19T04:28:50;0.30;99.90
40077;DHT22;25777;47.824;18.982;2023-11-19T04:31:16;0.30;99.90
40077;DHT22;25777;47.824;18.982;2023-11-19T04:33:42;0.30;99.90
40077;DHT22;25777;47.824;18.982;2023-11-19T04:36:10;0.20;99.90
40077;DHT22;25777;47.824;18.982;2023-11-19T04:38:36;0.20;99.90
40077;DHT22;25777;47.824;18.982;2023-11-19T04:41:05;0.30;99.90
40077;DHT22;25777;47.824;18.982;2023-11-19T04:43:32;0.20;99.90
40077;DHT22;25777;47.824;18.982;2023-11-19T04:45:58;0.30;99.90
40077;DHT22;25777;47.824;18.982;2023-11-19T04:48:24;0.30;99.90
40077;DHT22;25777;47.824;18.982;2023-11-19T04:50:50;0.20;99.90
40077;DHT22;25777;47.824;18.982;2023-11-19T04:53:19;0.10;99.90
40077;DHT22;25777;47.824;18.982;2023-11-19T04:55:45;0.10;99.90
40077;DHT22;25777;47.824;18.982;2023-11-19T04:58:11;0.20;99.90
40077;DHT22;25777;47.824;18.982;2023-11-19T05:00:37;0.00;99.90
40077;DHT22;25777;47.824;18.982;2023-11-19T05:03:03;0.00;99.90
40077;DHT22;25777;47.824;18.982;2023-11-19T05:05:29;-0.10;99.90
40077;DHT22;25777;47.824;18.982;2023-11-19T05:07:54;0.00;99.90
40077;DHT22;25777;47.824;18.982;2023-11-19T05:10:20;0.00;99.90
40077;DHT22;25777;47.824;18.982;2023-11-19T05:12:46;0.00;99.90
40077;DHT22;25777;47.824;18.982;2023-11-19T05:15:12;0.20;99.90
40077;DHT22;25777;47.824;18.982;2023-11-19T05:17:38;0.20;99.90
40077;DHT22;25777;47.824;18.982;2023-11-19T05:20:05;0.20;99.90
40077;DHT22;25777;47.824;18.982;2023-11-19T05:22:42;0.20;99.90
40077;DHT22;25777;47.824;18.982;2023-11-19T05:25:08;0.20;99.90
40077;DHT22;25777;47.824;18.982;2023-11-19T05:27:38;0.10;99.90
40077;DHT22;25777;47.824;18.982;2023-11-19T05:30:05;0.10;99.90
40077;DHT22;25777;47.824;18.982;2023-11-19T05:32:36;0.20;99.90
40077;DHT22;25777;47.824;18.982;2023-11-19T05:35:02;0.20;99.90
40077;DHT22;25777;47.824;18.982;2023-11-19T05:37:28;0.30;99.90
40077;DHT22;25777;47.824;18.982;2023-11-19T05:39:54;0.40;99.90
40077;DHT22;25777;47.824;18.982;2023-11-19T05:42:20;0.40;99.90
40077;DHT22;25777;47.824;18.982;2023-11-19T05:44:45;0.40;99.90
40077;DHT22;25777;47.824;18.982;2023-11-19T05:47:12;0.30;99.90
40077;DHT22;25777;47.824;18.982;2023-11-19T05:49:37;0.40;99.90
40077;DHT22;25777;47.824;18.982;2023-11-19T05:52:04;0.40;99.90
40077;DHT22;25777;47.824;18.982;2023-11-19T05:54:33;0.40;99.90
40077;DHT22;25777;47.824;18.982;2023-11-19T05:57:04;0.40;99.90
40077;DHT22;25777;47.824;18.982;2023-11-19T05:59:30;0.50;99.90
40077;DHT22;25777;47.824;18.982;2023-11-19T06:01:58;0.50;99.90
40077;DHT22;25777;47.824;18.982;2023-11-19T06:04:24;0.50;99.90
40077;DHT22;25777;47.824;18.982;2023-11-19T06:06:49;0.50;99.90
40077;DHT22;25777;47.824;18.982;2023-11-19T06:09:15;0.50;99.90
40077;DHT22;25777;47.824;18.982;2023-11-19T06:11:44;0.40;99.90
40077;DHT22;25777;47.824;18.982;2023-11-19T06:14:10;0.40;99.90
40077;DHT22;25777;47.824;18.982;2023-11-19T06:16:37;0.40;99.90
40077;DHT22;25777;47.824;18.982;2023-11-19T06:19:05;0.40;99.90
40077;DHT22;25777;47.824;18.982;2023-11-19T06:21:31;0.50;99.90
40077;DHT22;25777;47.824;18.982;2023-11-19T06:23:57;0.50;99.90
40077;DHT22;25777;47.824;18.982;2023-11-19T06:26:23;0.50;99.90
40077;DHT22;25777;47.824;18.982;2023-11-19T06:28:49;0.50;99.90
40077;DHT22;25777;47.824;18.982;2023-11-19T06:31:15;0.40;99.90
40077;DHT22;25777;47.824;18.982;2023-11-19T06:33:42;0.40;99.90
40077;DHT22;25777;47.824;18.982;2023-11-19T06:36:08;0.50;99.90
40077;DHT22;25777;47.824;18.982;2023-11-19T06:38:35;0.60;99.90
40077;DHT22;25777;47.824;18.982;2023-11-19T06:41:01;0.50;99.90
40077;DHT22;25777;47.824;18.982;2023-11-19T06:43:27;0.70;99.90
40077;DHT22;25777;47.824;18.982;2023-11-19T06:45:54;0.70;99.90
40077;DHT22;25777;47.824;18.982;2023-11-19T06:48:20;0.70;99.90
40077;DHT22;25777;47.824;18.982;2023-11-19T06:50:45;0.80;99.90
40077;DHT22;25777;47.824;18.982;2023-11-19T06:53:11;0.70;99.90
40077;DHT22;25777;47.824;18.982;2023-11-19T06:55:37;0.80;99.90
40077;DHT22;25777;47.824;18.982;2023-11-19T06:58:03;0.90;99.90
40077;DHT22;25777;47.824;18.982;2023-11-19T07:00:29;0.90;99.90
40077;DHT22;25777;47.824;18.982;2023-11-19T07:02:57;0.90;99.90
40077;DHT22;25777;47.824;18.982;2023-11-19T07:05:23;1.00;99.90
40077;DHT22;25777;47.824;18.982;2023-11-19T07:07:49;1.10;99.90
40077;DHT22;25777;47.824;18.982;2023-11-19T07:10:15;1.10;99.90
40077;DHT22;25777;47.824;18.982;2023-11-19T07:12:41;1.20;99.90
40077;DHT22;25777;47.824;18.982;2023-11-19T07:15:08;1.20;99.90
40077;DHT22;25777;47.824;18.982;2023-11-19T07:17:39;1.20;99.90
40077;DHT22;25777;47.824;18.982;2023-11-19T07:20:05;1.30;99.90
40077;DHT22;25777;47.824;18.982;2023-11-19T07:22:31;1.40;99.90
40077;DHT22;25777;47.824;18.982;2023-11-19T07:24:57;1.40;99.90
40077;DHT22;25777;47.824;18.982;2023-11-19T07:27:24;1.40;99.90
40077;DHT22;25777;47.824;18.982;2023-11-19T07:29:50;1.40;99.90
40077;DHT22;25777;47.824;18.982;2023-11-19T07:32:15;1.50;99.90
40077;DHT22;25777;47.824;18.982;2023-11-19T07:34:41;1.50;99.90
40077;DHT22;25777;47.824;18.982;2023-11-19T07:37:07;1.50;99.90
40077;DHT22;25777;47.824;18.982;2023-11-19T07:39:33;1.50;99.90
40077;DHT22;25777;47.824;18.982;2023-11-19T07:41:59;1.60;99.90
40077;DHT22;25777;47.824;18.982;2023-11-19T07:44:25;1.60;99.90
40077;DHT22;25777;47.824;18.982;2023-11-19T07:46:51;1.70;99.90
40077;DHT22;25777;47.824;18.982;2023-11-19T07:49:17;1.70;99.90
40077;DHT22;25777;47.824;18.982;2023-11-19T07:51:43;1.70;99.90
40077;DHT22;25777;47.824;18.982;2023-11-19T07:54:09;1.60;99.90
40077;DHT22;25777;47.824;18.982;2023-11-19T07:56:34;1.60;99.90
40077;DHT22;25777;47.824;18.982;2023-11-19T07:59:03;1.60;99.90
40077;DHT22;25777;47.824;18.982;2023-11-19T08:01:29;1.70;99.90
40077;DHT22;25777;47.824;18.982;2023-11-19T08:03:55;1.70;99.90
40077;DHT22;25777;47.824;18.982;2023-11-19T08:06:20;1.70;99.90
40077;DHT22;25777;47.824;18.982;2023-11-19T08:08:47;1.70;99.90
40077;DHT22;25777;47.824;18.982;2023-11-19T08:11:13;1.80;99.90
40077;DHT22;25777;47.824;18.982;2023-11-19T08:13:40;1.80;99.90
40077;DHT22;25777;47.824;18.982;2023-11-19T08:16:07;1.90;99.90
40077;DHT22;25777;47.824;18.982;2023-11-19T08:18:33;1.90;99.90
40077;DHT22;25777;47.824;18.982;2023-11-19T08:20:59;1.90;99.90
40077;DHT22;25777;47.824;18.982;2023-11-19T08:23:26;1.90;99.90
40077;DHT22;25777;47.824;18.982;2023-11-19T08:25:54;1.90;99.90
40077;DHT22;25777;47.824;18.982;2023-11-19T08:28:20;1.90;99.90
40077;DHT22;25777;47.824;18.982;2023-11-19T08:30:46;1.90;99.90
40077;DHT22;25777;47.824;18.982;2023-11-19T08:33:12;1.90;99.90
40077;DHT22;25777;47.824;18.982;2023-11-19T08:35:38;1.90;99.90
40077;DHT22;25777;47.824;18.982;2023-11-19T08:38:03;2.00;99.90
40077;DHT22;25777;47.824;18.982;2023-11-19T08:40:29;2.10;99.90
40077;DHT22;25777;47.824;18.982;2023-11-19T08:42:56;2.00;99.90
40077;DHT22;25777;47.824;18.982;2023-11-19T08:45:22;1.90;99.90
40077;DHT22;25777;47.824;18.982;2023-11-19T08:47:48;1.90;99.90
40077;DHT22;25777;47.824;18.982;2023-11-19T08:50:14;2.10;99.90
40077;DHT22;25777;47.824;18.982;2023-11-19T08:52:40;2.10;99.90
40077;DHT22;25777;47.824;18.982;2023-11-19T08:55:06;2.10;99.90
40077;DHT22;25777;47.824;18.982;2023-11-19T08:57:32;2.00;99.90
40077;DHT22;25777;47.824;18.982;2023-11-19T09:00:01;2.00;99.90
40077;DHT22;25777;47.824;18.982;2023-11-19T09:02:28;2.20;99.90
40077;DHT22;25777;47.824;18.982;2023-11-19T09:04:54;2.20;99.90
40077;DHT22;25777;47.824;18.982;2023-11-19T09:07:20;2.20;99.90
40077;DHT22;25777;47.824;18.982;2023-11-19T09:09:46;2.30;99.90
40077;DHT22;25777;47.824;18.982;2023-11-19T09:12:12;2.30;99.90
40077;DHT22;25777;47.824;18.982;2023-11-19T09:14:39;2.30;99.90
40077;DHT22;25777;47.824;18.982;2023-11-19T09:17:05;2.30;99.90
40077;DHT22;25777;47.824;18.982;2023-11-19T09:19:32;2.30;99.90
40077;DHT22;25777;47.824;18.982;2023-11-19T09:21:58;2.40;99.90
40077;DHT22;25777;47.824;18.982;2023-11-19T09:24:24;2.50;99.90
40077;DHT22;25777;47.824;18.982;2023-11-19T09:26:50;2.50;99.90
40077;DHT22;25777;47.824;18.982;2023-11-19T09:29:16;2.50;99.90
40077;DHT22;25777;47.824;18.982;2023-11-19T09:31:42;2.50;99.90
40077;DHT22;25777;47.824;18.982;2023-11-19T09:34:07;2.50;99.90
40077;DHT22;25777;47.824;18.982;2023-11-19T09:36:37;2.50;99.90
40077;DHT22;25777;47.824;18.982;2023-11-19T09:39:04;2.30;99.90
40077;DHT22;25777;47.824;18.982;2023-11-19T09:41:34;2.40;99.90
40077;DHT22;25777;47.824;18.982;2023-11-19T09:44:00;2.40;99.90
40077;DHT22;25777;47.824;18.982;2023-11-19T09:46:27;2.50;99.90
40077;DHT22;25777;47.824;18.982;2023-11-19T09:48:53;2.50;99.90
40077;DHT22;25777;47.824;18.982;2023-11-19T09:51:20;2.60;99.90
40077;DHT22;25777;47.824;18.982;2023-11-19T09:53:47;2.60;99.90
40077;DHT22;25777;47.824;18.982;2023-11-19T09:56:13;2.70;99.90
40077;DHT22;25777;47.824;18.982;2023-11-19T09:58:39;2.70;99.90
40077;DHT22;25777;47.824;18.982;2023-11-19T10:01:05;2.70;99.90
40077;DHT22;25777;47.824;18.982;2023-11-19T10:03:36;2.70;99.90
40077;DHT22;25777;47.824;18.982;2023-11-19T10:06:08;2.70;99.90
40077;DHT22;25777;47.824;18.982;2023-11-19T10:08:38;2.90;99.90
40077;DHT22;25777;47.824;18.982;2023-11-19T10:11:07;3.00;99.90
40077;DHT22;25777;47.824;18.982;2023-11-19T10:13:35;2.90;99.90
40077;DHT22;25777;47.824;18.982;2023-11-19T10:16:17;2.80;99.90
40077;DHT22;25777;47.824;18.982;2023-11-19T10:18:47;2.90;99.90
40077;DHT22;25777;47.824;18.982;2023-11-19T10:21:14;2.90;99.90
40077;DHT22;25777;47.824;18.982;2023-11-19T10:23:54;2.90;99.90
40077;DHT22;25777;47.824;18.982;2023-11-19T10:26:23;2.90;99.90
40077;DHT22;25777;47.824;18.982;2023-11-19T10:28:50;3.00;99.90
40077;DHT22;25777;47.824;18.982;2023-11-19T10:31:17;2.90;99.90
40077;DHT22;25777;47.824;18.982;2023-11-19T10:33:44;2.90;99.90
40077;DHT22;25777;47.824;18.982;2023-11-19T10:36:11;2.90;99.90
40077;DHT22;25777;47.824;18.982;2023-11-19T10:38:40;2.90;99.90
40077;DHT22;25777;47.824;18.982;2023-11-19T10:41:07;2.90;99.90
40077;DHT22;25777;47.824;18.982;2023-11-19T10:43:53;2.90;99.90
40077;DHT22;25777;47.824;18.982;2023-11-19T10:46:19;3.00;99.90
40077;DHT22;25777;47.824;18.982;2023-11-19T10:48:54;3.00;99.90
40077;DHT22;25777;47.824;18.982;2023-11-19T10:51:20;3.00;99.90
40077;DHT22;25777;47.824;18.982;2023-11-19T10:53:49;3.00;99.90
40077;DHT22;25777;47.824;18.982;2023-11-19T10:56:17;3.00;99.90
40077;DHT22;25777;47.824;18.982;2023-11-19T10:58:47;3.00;99.90
40077;DHT22;25777;47.824;18.982;2023-11-19T11:01:20;3.00;99.90
40077;DHT22;25777;47.824;18.982;2023-11-19T11:03:51;3.10;99.90
40077;DHT22;25777;47.824;18.982;2023-11-19T11:06:19;3.10;99.90
40077;DHT22;25777;47.824;18.982;2023-11-19T11:08:48;3.10;99.90
40077;DHT22;25777;47.824;18.982;2023-11-19T11:11:15;3.10;99.90
40077;DHT22;25777;47.824;18.982;2023-11-19T11:13:44;3.10;99.90
40077;DHT22;25777;47.824;18.982;2023-11-19T11:16:12;3.10;99.90
40077;DHT22;25777;47.824;18.982;2023-11-19T11:18:39;3.00;99.90
40077;DHT22;25777;47.824;18.982;2023-11-19T11:21:11;3.10;99.90
40077;DHT22;25777;47.824;18.982;2023-11-19T11:31:52;3.00;99.90
40077;DHT22;25777;47.824;18.982;2023-11-19T11:34:44;3.00;99.90
40077;DHT22;25777;47.824;18.982;2023-11-19T11:39:42;3.10;99.90
40077;DHT22;25777;47.824;18.982;2023-11-19T11:45:13;3.10;99.90
40077;DHT22;25777;47.824;18.982;2023-11-19T11:50:11;3.10;99.90
40077;DHT22;25777;47.824;18.982;2023-11-19T11:55:29;3.30;99.90
40077;DHT22;25777;47.824;18.982;2023-11-19T11:57:59;3.30;99.90
40077;DHT22;25777;47.824;18.982;2023-11-19T12:00:32;3.40;99.90
40077;DHT22;25777;47.824;18.982;2023-11-19T12:03:04;3.50;99.90
40077;DHT22;25777;47.824;18.982;2023-11-19T12:05:30;3.60;99.90
40077;DHT22;25777;47.824;18.982;2023-11-19T12:08:04;3.70;99.90
40077;DHT22;25777;47.824;18.982;2023-11-19T12:10:37;3.80;99.90
40077;DHT22;25777;47.824;18.982;2023-11-19T12:13:06;3.80;99.90
40077;DHT22;25777;47.824;18.982;2023-11-19T12:15:32;3.70;99.90
40077;DHT22;25777;47.824;18.982;2023-11-19T12:17:58;3.70;99.90
40077;DHT22;25777;47.824;18.982;2023-11-19T12:20:25;3.70;99.90
40077;DHT22;25777;47.824;18.982;2023-11-19T12:22:52;3.80;99.90
40077;DHT22;25777;47.824;18.982;2023-11-19T12:25:19;3.90;99.90
40077;DHT22;25777;47.824;18.982;2023-11-19T12:27:47;3.80;99.90
40077;DHT22;25777;47.824;18.982;2023-11-19T12:30:26;3.80;99.90
40077;DHT22;25777;47.824;18.982;2023-11-19T12:32:55;3.70;99.90
40077;DHT22;25777;47.824;18.982;2023-11-19T12:35:22;3.80;99.90
40077;DHT22;25777;47.824;18.982;2023-11-19T12:37:49;3.80;99.90
40077;DHT22;25777;47.824;18.982;2023-11-19T12:40:24;3.80;99.90
40077;DHT22;25777;47.824;18.982;2023-11-19T12:42:51;3.90;99.90
40077;DHT22;25777;47.824;18.982;2023-11-19T12:45:18;3.90;99.90
40077;DHT22;25777;47.824;18.982;2023-11-19T12:47:46;3.90;99.90
40077;DHT22;25777;47.824;18.982;2023-11-19T12:50:17;3.90;99.90
40077;DHT22;25777;47.824;18.982;2023-11-19T12:52:55;3.80;99.90
40077;DHT22;25777;47.824;18.982;2023-11-19T12:55:29;3.90;99.90
40077;DHT22;25777;47.824;18.982;2023-11-19T12:57:55;3.80;99.90
40077;DHT22;25777;47.824;18.982;2023-11-19T13:00:22;3.80;99.90
40077;DHT22;25777;47.824;18.982;2023-11-19T13:02:51;3.90;99.90
40077;DHT22;25777;47.824;18.982;2023-11-19T13:05:23;3.90;99.90
40077;DHT22;25777;47.824;18.982;2023-11-19T13:07:49;3.90;99.90
40077;DHT22;25777;47.824;18.982;2023-11-19T13:10:15;3.90;99.90
40077;DHT22;25777;47.824;18.982;2023-11-19T13:12:41;3.90;99.90
40077;DHT22;25777;47.824;18.982;2023-11-19T13:15:23;3.90;99.90
40077;DHT22;25777;47.824;18.982;2023-11-19T13:17:50;4.00;99.90
40077;DHT22;25777;47.824;18.982;2023-11-19T13:20:16;4.00;99.90
40077;DHT22;25777;47.824;18.982;2023-11-19T13:23:00;4.00;99.90
40077;DHT22;25777;47.824;18.982;2023-11-19T13:25:27;4.00;99.90
40077;DHT22;25777;47.824;18.982;2023-11-19T13:27:53;4.10;99.90
40077;DHT22;25777;47.824;18.982;2023-11-19T13:30:20;4.10;99.90
40077;DHT22;25777;47.824;18.982;2023-11-19T13:32:46;4.20;99.90
40077;DHT22;25777;47.824;18.982;2023-11-19T13:35:12;4.10;99.90
40077;DHT22;25777;47.824;18.982;2023-11-19T13:37:39;4.20;99.90
40077;DHT22;25777;47.824;18.982;2023-11-19T13:40:07;4.10;99.90
40077;DHT22;25777;47.824;18.982;2023-11-19T13:42:33;4.10;99.90
40077;DHT22;25777;47.824;18.982;2023-11-19T13:44:59;4.10;99.90
40077;DHT22;25777;47.824;18.982;2023-11-19T13:47:24;4.00;99.90
40077;DHT22;25777;47.824;18.982;2023-11-19T13:49:50;4.00;99.90
40077;DHT22;25777;47.824;18.982;2023-11-19T13:52:16;4.10;99.90
40077;DHT22;25777;47.824;18.982;2023-11-19T13:54:42;4.10;99.90
40077;DHT22;25777;47.824;18.982;2023-11-19T13:57:08;4.00;99.90
40077;DHT22;25777;47.824;18.982;2023-11-19T13:59:39;4.10;99.90
40077;DHT22;25777;47.824;18.982;2023-11-19T14:02:06;4.10;99.90
40077;DHT22;25777;47.824;18.982;2023-11-19T14:04:33;4.10;99.90
40077;DHT22;25777;47.824;18.982;2023-11-19T14:06:59;4.10;99.90
40077;DHT22;25777;47.824;18.982;2023-11-19T14:09:25;4.10;99.90
40077;DHT22;25777;47.824;18.982;2023-11-19T14:11:51;4.10;99.90
40077;DHT22;25777;47.824;18.982;2023-11-19T14:14:17;4.10;99.90
40077;DHT22;25777;47.824;18.982;2023-11-19T14:16:43;4.00;99.90
40077;DHT22;25777;47.824;18.982;2023-11-19T14:19:10;4.00;99.90
40077;DHT22;25777;47.824;18.982;2023-11-19T14:21:36;4.10;99.90
40077;DHT22;25777;47.824;18.982;2023-11-19T14:24:01;4.10;99.90
40077;DHT22;25777;47.824;18.982;2023-11-19T14:26:27;4.10;99.90
40077;DHT22;25777;47.824;18.982;2023-11-19T14:28:53;4.10;99.90
40077;DHT22;25777;47.824;18.982;2023-11-19T14:31:19;4.10;99.90
40077;DHT22;25777;47.824;18.982;2023-11-19T14:33:45;4.10;99.90
40077;DHT22;25777;47.824;18.982;2023-11-19T14:36:11;4.20;99.90
40077;DHT22;25777;47.824;18.982;2023-11-19T14:38:37;4.20;99.90
40077;DHT22;25777;47.824;18.982;2023-11-19T14:41:03;4.10;99.90
40077;DHT22;25777;47.824;18.982;2023-11-19T14:43:30;4.20;99.90
40077;DHT22;25777;47.824;18.982;2023-11-19T14:45:56;4.10;99.90
40077;DHT22;25777;47.824;18.982;2023-11-19T14:48:22;4.10;99.90
40077;DHT22;25777;47.824;18.982;2023-11-19T14:50:48;4.10;99.90
40077;DHT22;25777;47.824;18.982;2023-11-19T14:53:14;4.10;99.90
40077;DHT22;25777;47.824;18.982;2023-11-19T14:55:40;4.10;99.90
40077;DHT22;25777;47.824;18.982;2023-11-19T14:58:06;4.00;99.90
40077;DHT22;25777;47.824;18.982;2023-11-19T15:00:33;4.00;99.90
40077;DHT22;25777;47.824;18.982;2023-11-19T15:02:59;4.00;99.90
40077;DHT22;25777;47.824;18.982;2023-11-19T15:05:25;4.00;99.90
40077;DHT22;25777;47.824;18.982;2023-11-19T15:07:51;4.10;99.90
40077;DHT22;25777;47.824;18.982;2023-11-19T15:10:16;4.00;99.90
40077;DHT22;25777;47.824;18.982;2023-11-19T15:12:44;4.00;99.90
40077;DHT22;25777;47.824;18.982;2023-11-19T15:15:10;4.00;99.90
40077;DHT22;25777;47.824;18.982;2023-11-19T15:17:38;4.10;99.90
40077;DHT22;25777;47.824;18.982;2023-11-19T15:20:05;4.10;99.90
40077;DHT22;25777;47.824;18.982;2023-11-19T15:22:31;4.00;99.90
40077;DHT22;25777;47.824;18.982;2023-11-19T15:24:57;4.00;99.90
40077;DHT22;25777;47.824;18.982;2023-11-19T15:27:23;4.00;99.90
40077;DHT22;25777;47.824;18.982;2023-11-19T15:29:48;4.00;99.90
40077;DHT22;25777;47.824;18.982;2023-11-19T15:32:15;4.00;99.90
40077;DHT22;25777;47.824;18.982;2023-11-19T15:34:40;4.00;99.90
40077;DHT22;25777;47.824;18.982;2023-11-19T15:37:08;4.10;99.90
40077;DHT22;25777;47.824;18.982;2023-11-19T15:39:33;3.90;99.90
40077;DHT22;25777;47.824;18.982;2023-11-19T15:42:02;3.90;99.90
40077;DHT22;25777;47.824;18.982;2023-11-19T15:44:28;3.90;99.90
40077;DHT22;25777;47.824;18.982;2023-11-19T15:46:54;4.00;99.90
40077;DHT22;25777;47.824;18.982;2023-11-19T15:49:20;4.00;99.90